createdAt,value
2023-10-23T00:04:53.787Z,101283.47
2023-10-23T00:10:15.590Z,101278.28
2023-10-23T00:15:37.321Z,101274.09
2023-10-23T00:20:58.998Z,101275.84
2023-10-23T00:26:20.649Z,101283.66
2023-10-23T00:31:42.374Z,101281.94
2023-10-23T00:37:04.109Z,101275.06
2023-10-23T00:42:25.750Z,101282.06
2023-10-23T00:47:47.870Z,101282.06
2023-10-23T00:53:09.566Z,101299.44
2023-10-23T00:58:32.649Z,101298.63
2023-10-23T01:03:54.309Z,101297.00
2023-10-23T01:09:15.921Z,101303.97
2023-10-23T01:14:37.744Z,101310.06
2023-10-23T01:19:59.502Z,101314.47
2023-10-23T01:25:21.105Z,101312.00
2023-10-23T01:30:42.734Z,101308.59
2023-10-23T01:36:04.358Z,101320.69
2023-10-23T01:41:25.921Z,101322.47
2023-10-23T01:46:47.537Z,101321.69
2023-10-23T01:52:09.128Z,101314.88
2023-10-23T01:57:30.790Z,101311.53
2023-10-23T02:02:52.450Z,101320.16
2023-10-23T02:08:14.065Z,101322.78
2023-10-23T02:13:36.307Z,101317.69
2023-10-23T02:18:57.879Z,101325.47
2023-10-23T02:24:20.825Z,101337.56
2023-10-23T02:29:42.648Z,101341.09
2023-10-23T02:35:04.575Z,101341.97
2023-10-23T02:40:26.237Z,101341.16
2023-10-23T02:45:48.352Z,101342.03
2023-10-23T02:51:10.003Z,101349.84
2023-10-23T02:56:33.199Z,101347.31
2023-10-23T03:01:55.165Z,101364.53
2023-10-23T03:07:16.854Z,101374.88
2023-10-23T03:12:38.442Z,101369.72
2023-10-23T03:18:04.702Z,101379.22
2023-10-23T03:23:26.694Z,101382.75
2023-10-23T03:28:48.303Z,101385.38
2023-10-23T03:34:09.993Z,101378.53
2023-10-23T03:39:31.749Z,101376.00
2023-10-23T03:44:53.348Z,101375.19
2023-10-23T03:50:15.067Z,101383.00
2023-10-23T03:55:38.208Z,101386.53
2023-10-23T04:00:59.925Z,101396.09
2023-10-23T04:06:21.761Z,101391.81
2023-10-23T04:11:43.369Z,101392.81
2023-10-23T04:17:05.324Z,101394.59
2023-10-23T04:22:26.937Z,101399.78
2023-10-23T04:27:48.622Z,101403.22
2023-10-23T04:33:10.324Z,101398.09
2023-10-23T04:38:32.695Z,101401.47
2023-10-23T04:43:54.868Z,101415.25
2023-10-23T04:49:16.510Z,101413.56
2023-10-23T04:54:38.126Z,101416.22
2023-10-23T05:00:00.243Z,101420.53
2023-10-23T05:05:22.357Z,101400.84
2023-10-23T05:10:44.025Z,101402.47
2023-10-23T05:16:06.725Z,101402.59
2023-10-23T05:21:28.602Z,101413.00
2023-10-23T05:26:50.216Z,101408.72
2023-10-23T05:32:11.814Z,101414.78
2023-10-23T05:37:36.604Z,101402.69
2023-10-23T05:42:58.402Z,101420.78
2023-10-23T05:48:20.081Z,101432.91
2023-10-23T05:53:41.739Z,101450.13
2023-10-23T05:59:04.705Z,101443.28
2023-10-23T06:04:26.364Z,101456.22
2023-10-23T06:09:48.170Z,101468.28
2023-10-23T06:15:11.330Z,101472.56
2023-10-23T06:20:35.778Z,101482.84
2023-10-23T06:25:57.505Z,101490.59
2023-10-23T06:31:19.252Z,101494.91
2023-10-23T06:36:43.048Z,101484.63
2023-10-23T06:42:05.516Z,101499.22
2023-10-23T06:47:27.949Z,101502.63
2023-10-23T06:52:49.539Z,101502.66
2023-10-23T06:58:11.116Z,101500.91
2023-10-23T07:03:32.845Z,101516.38
2023-10-23T07:08:54.520Z,101509.44
2023-10-23T07:14:16.320Z,101511.19
2023-10-23T07:19:38.214Z,101503.47
2023-10-23T07:25:00.704Z,101517.25
2023-10-23T07:30:25.524Z,101519.78
2023-10-23T07:35:53.442Z,101524.09
2023-10-23T07:41:15.321Z,101528.31
2023-10-23T07:46:37.064Z,101529.19
2023-10-23T07:51:58.761Z,101522.31
2023-10-23T07:57:20.373Z,101536.03
2023-10-23T08:02:42.170Z,101539.47
2023-10-23T08:08:05.297Z,101528.22
2023-10-23T08:13:26.947Z,101530.81
2023-10-23T08:18:48.567Z,101534.13
2023-10-23T08:24:10.729Z,101534.94
2023-10-23T08:29:32.402Z,101520.34
2023-10-23T08:34:55.674Z,101528.84
2023-10-23T08:40:17.320Z,101514.97
2023-10-23T08:45:39.656Z,101524.28
2023-10-23T08:51:01.284Z,101529.28
2023-10-23T08:56:25.641Z,101531.81
2023-10-23T09:01:47.503Z,101522.41
2023-10-23T09:07:09.140Z,101531.72
2023-10-23T09:12:32.124Z,101538.34
2023-10-23T09:17:54.602Z,101535.66
2023-10-23T09:23:16.359Z,101544.25
2023-10-23T09:28:37.991Z,101550.28
2023-10-23T09:34:01.557Z,101542.50
2023-10-23T09:39:23.755Z,101538.81
2023-10-23T09:44:46.883Z,101529.19
2023-10-23T09:50:09.502Z,101533.44
2023-10-23T09:55:36.353Z,101525.56
2023-10-23T10:01:01.449Z,101522.22
2023-10-23T10:06:25.632Z,101535.91
2023-10-23T10:11:47.273Z,101526.44
2023-10-23T10:17:11.448Z,101531.41
2023-10-23T10:22:37.062Z,101528.63
2023-10-23T10:28:00.205Z,101522.47
2023-10-23T10:34:24.397Z,101516.22
2023-10-23T10:39:07.562Z,101509.13
2023-10-23T10:44:29.173Z,101508.84
2023-10-23T10:49:51.888Z,101514.75
2023-10-23T10:55:14.056Z,101501.88
2023-10-23T11:00:37.353Z,101506.94
2023-10-23T11:05:59.272Z,101499.97
2023-10-23T11:11:20.860Z,101501.66
2023-10-23T11:16:42.550Z,101498.16
2023-10-23T11:22:12.254Z,101491.88
2023-10-23T11:27:34.629Z,101486.78
2023-10-23T11:32:57.790Z,101480.66
2023-10-23T11:38:23.766Z,101480.50
2023-10-23T11:43:45.226Z,101485.56
2023-10-23T11:49:06.930Z,101495.16
2023-10-23T11:54:29.418Z,101478.50
2023-10-23T11:59:51.156Z,101473.97
2023-10-23T12:05:16.158Z,101466.72
2023-10-23T12:10:39.406Z,101474.50
2023-10-23T12:16:01.265Z,101466.63
2023-10-23T12:21:23.087Z,101459.03
2023-10-23T12:26:44.656Z,101446.09
2023-10-23T12:32:06.545Z,101443.31
2023-10-23T12:37:28.455Z,101441.34
2023-10-23T12:42:50.151Z,101447.06
2023-10-23T12:48:11.942Z,101447.66
2023-10-23T12:53:34.870Z,101440.56
2023-10-23T12:58:56.518Z,101428.28
2023-10-23T13:04:22.562Z,101417.72
2023-10-23T13:09:44.247Z,101421.03
2023-10-23T13:15:06.239Z,101408.69
2023-10-23T13:21:30.613Z,101400.91
2023-10-23T13:26:13.874Z,101380.88
2023-10-23T13:31:36.311Z,101373.53
2023-10-23T13:36:57.971Z,101371.91
2023-10-23T13:42:19.696Z,101362.50
2023-10-23T13:47:41.304Z,101364.13
2023-10-23T13:53:02.936Z,101355.31
2023-10-23T13:58:24.685Z,101352.63
2023-10-23T14:03:46.840Z,101345.47
2023-10-23T14:09:41.977Z,101341.88
2023-10-23T14:14:50.658Z,101344.47
2023-10-23T14:20:12.939Z,101343.50
2023-10-23T14:25:34.545Z,101333.09
2023-10-23T14:30:56.352Z,101322.66
2023-10-23T14:36:17.962Z,101310.56
2023-10-23T14:41:39.551Z,101312.34
2023-10-23T14:47:01.202Z,101301.97
2023-10-23T14:52:22.894Z,101294.22
2023-10-23T14:57:45.404Z,101289.94
2023-10-23T15:03:07.605Z,101286.44
2023-10-23T15:08:29.231Z,101283.00
2023-10-23T15:13:51.603Z,101283.97
2023-10-23T15:19:13.276Z,101282.28
2023-10-23T15:24:34.906Z,101278.00
2023-10-23T15:29:56.521Z,101281.56
2023-10-23T15:35:18.142Z,101270.44
2023-10-23T15:40:39.785Z,101255.00
2023-10-23T15:46:01.704Z,101250.78
2023-10-23T15:51:23.534Z,101238.03
2023-10-23T15:56:46.827Z,101233.88
2023-10-23T16:02:08.828Z,101228.91
2023-10-23T16:07:30.536Z,101239.34
2023-10-23T16:12:52.171Z,101230.00
2023-10-23T16:18:16.100Z,101234.41
2023-10-23T16:23:37.752Z,101232.84
2023-10-23T16:28:59.353Z,101215.66
2023-10-23T16:34:20.972Z,101226.09
2023-10-23T16:39:42.661Z,101227.81
2023-10-23T16:45:04.696Z,101220.19
2023-10-23T16:50:25.480Z,101206.47
2023-10-23T16:55:53.772Z,101219.56
2023-10-23T17:01:15.845Z,101217.13
2023-10-23T17:06:38.701Z,101230.94
2023-10-23T17:12:00.643Z,101230.16
2023-10-23T17:17:22.621Z,101225.06
2023-10-23T17:22:45.997Z,101221.81
2023-10-23T17:28:11.330Z,101221.25
2023-10-23T17:33:34.291Z,101209.34
2023-10-23T17:38:57.186Z,101220.63
2023-10-23T17:44:20.415Z,101212.16
2023-10-23T17:49:44.012Z,101210.56
2023-10-23T17:55:06.678Z,101185.72
2023-10-23T18:00:28.847Z,101199.47
2023-10-23T18:06:00.328Z,101199.63
2023-10-23T18:11:22.249Z,101199.66
2023-10-23T18:16:44.378Z,101190.28
2023-10-23T18:22:06.503Z,101180.84
2023-10-23T18:27:28.594Z,101188.66
2023-10-23T18:32:50.617Z,101183.63
2023-10-23T18:38:13.104Z,101172.41
2023-10-23T18:43:35.072Z,101163.00
2023-10-23T18:48:59.196Z,101141.38
2023-10-23T18:54:21.264Z,101130.31
2023-10-23T18:59:43.461Z,101121.72
2023-10-23T19:05:05.843Z,101114.94
2023-10-23T19:10:27.887Z,101102.78
2023-10-23T19:16:00.187Z,101092.38
2023-10-23T19:21:22.169Z,101082.84
2023-10-23T19:26:45.236Z,101079.34
2023-10-23T19:32:08.016Z,101057.78
2023-10-23T19:37:30.410Z,101058.69
2023-10-23T19:42:54.196Z,101055.13
2023-10-23T19:48:16.906Z,101058.47
2023-10-23T19:53:39.316Z,101048.03
2023-10-23T19:59:03.807Z,101048.84
2023-10-23T20:04:26.370Z,101068.63
2023-10-23T20:09:48.488Z,101060.81
2023-10-23T20:15:10.933Z,101064.22
2023-10-23T20:20:32.949Z,101069.28
2023-10-23T20:25:54.860Z,101055.44
2023-10-23T20:31:18.965Z,101068.38
2023-10-23T20:36:41.096Z,101063.09
2023-10-23T20:42:03.073Z,101059.66
2023-10-23T20:47:24.999Z,101063.91
2023-10-23T20:52:46.959Z,101062.94
2023-10-23T20:58:08.990Z,101063.84
2023-10-23T21:03:30.993Z,101038.06
2023-10-23T21:08:53.926Z,101027.69
2023-10-23T21:14:15.867Z,101024.19
2023-10-23T21:19:37.848Z,101025.09
2023-10-23T21:24:59.854Z,101009.47
2023-10-23T21:30:22.636Z,100996.53
2023-10-23T21:35:44.658Z,100973.25
2023-10-23T21:41:07.688Z,100981.09
2023-10-23T21:46:30.091Z,100971.56
2023-10-23T21:51:52.213Z,100962.06
2023-10-23T21:57:20.510Z,100934.47
2023-10-23T22:02:44.519Z,100930.97
2023-10-23T22:08:06.887Z,100914.56
2023-10-23T22:13:29.044Z,100902.66
2023-10-23T22:18:51.883Z,100905.19
2023-10-23T22:24:13.780Z,100875.91
2023-10-23T22:29:35.658Z,100870.91
2023-10-23T22:34:57.672Z,100869.13
2023-10-23T22:40:19.745Z,100862.19
2023-10-23T22:45:55.154Z,100842.28
2023-10-23T22:51:21.740Z,100838.84
2023-10-23T22:56:46.776Z,100823.25
2023-10-23T23:02:09.240Z,100825.00
2023-10-23T23:07:37.001Z,100805.94
2023-10-23T23:12:59.292Z,100797.28
2023-10-23T23:18:22.567Z,100786.88
2023-10-23T23:23:44.556Z,100785.84
2023-10-23T23:29:06.496Z,100790.09
2023-10-23T23:34:28.577Z,100772.03
2023-10-23T23:39:50.552Z,100759.88
2023-10-23T23:45:12.470Z,100758.06
2023-10-23T23:50:34.425Z,100744.22
2023-10-23T23:55:56.433Z,100729.34
